createdAt,value
2023-01-04T00:01:26.591Z,5.02
2023-01-04T00:03:53.340Z,4.91
2023-01-04T00:06:20.425Z,4.88
2023-01-04T00:08:47.511Z,4.80
2023-01-04T00:11:20.149Z,4.64
2023-01-04T00:13:48.762Z,4.61
2023-01-04T00:16:23.280Z,4.55
2023-01-04T00:18:51.566Z,4.42
2023-01-04T00:21:24.066Z,4.25
2023-01-04T00:23:53.041Z,4.19
2023-01-04T00:26:24.414Z,4.38
2023-01-04T00:28:55.767Z,4.23
2023-01-04T00:31:23.448Z,4.16
2023-01-04T00:33:51.325Z,4.19
2023-01-04T00:36:17.901Z,3.97
2023-01-04T00:38:45.063Z,3.62
2023-01-04T00:41:34.284Z,3.39
2023-01-04T00:44:03.156Z,3.34
2023-01-04T00:46:30.536Z,3.12
2023-01-04T00:49:00.386Z,2.93
2023-01-04T00:51:28.273Z,2.83
2023-01-04T00:53:54.864Z,2.57
2023-01-04T00:56:21.798Z,2.30
2023-01-04T00:58:48.701Z,2.15
2023-01-04T01:01:15.381Z,1.96
2023-01-04T01:03:44.481Z,2.11
2023-01-04T01:06:12.357Z,1.87
2023-01-04T01:08:39.083Z,1.77
2023-01-04T01:11:08.922Z,1.63
2023-01-04T01:13:36.854Z,1.68
2023-01-04T01:16:08.826Z,1.43
2023-01-04T01:18:37.066Z,1.43
2023-01-04T01:21:12.659Z,1.35
2023-01-04T01:23:39.944Z,1.21
2023-01-04T01:26:10.498Z,1.19
2023-01-04T01:28:37.177Z,1.12
2023-01-04T01:31:15.681Z,1.00
2023-01-04T01:33:44.023Z,0.91
2023-01-04T01:36:11.894Z,1.03
2023-01-04T01:38:39.465Z,1.11
2023-01-04T01:41:07.394Z,1.12
2023-01-04T01:43:52.633Z,0.93
2023-01-04T01:46:27.189Z,0.91
2023-01-04T01:48:59.099Z,0.90
2023-01-04T01:51:27.229Z,0.82
2023-01-04T01:54:01.174Z,0.85
2023-01-04T01:56:29.657Z,1.09
2023-01-04T01:58:58.574Z,0.95
2023-01-04T02:01:26.086Z,0.83
2023-01-04T02:03:52.946Z,0.70
2023-01-04T02:06:25.708Z,0.48
2023-01-04T02:08:52.778Z,0.40
2023-01-04T02:11:19.354Z,0.47
2023-01-04T02:14:04.914Z,0.38
2023-01-04T02:16:46.258Z,0.50
2023-01-04T02:19:28.385Z,0.35
2023-01-04T02:22:04.050Z,0.76
2023-01-04T02:24:58.618Z,0.63
2023-01-04T02:27:39.348Z,0.62
2023-01-04T02:30:44.184Z,0.93
2023-01-04T02:33:43.019Z,1.03
2023-01-04T02:36:53.007Z,1.21
2023-01-04T02:39:55.569Z,0.88
2023-01-04T02:42:56.287Z,0.55
2023-01-04T02:45:25.162Z,0.42
2023-01-04T02:48:10.531Z,0.63
2023-01-04T02:50:50.089Z,0.58
2023-01-04T02:53:41.009Z,0.58
2023-01-04T02:56:35.618Z,1.17
2023-01-04T02:59:03.263Z,0.85
2023-01-04T03:02:30.085Z,0.80
2023-01-04T03:05:35.956Z,0.71
2023-01-04T03:08:27.485Z,0.45
2023-01-04T03:11:02.672Z,0.42
2023-01-04T03:13:37.879Z,0.42
2023-01-04T03:16:11.260Z,0.49
2023-01-04T03:18:43.496Z,0.42
2023-01-04T03:21:13.222Z,0.64
2023-01-04T03:23:59.479Z,1.19
2023-01-04T03:26:52.353Z,1.17
2023-01-04T03:29:50.371Z,1.24
2023-01-04T03:32:46.470Z,0.90
2023-01-04T03:35:28.195Z,0.76
2023-01-04T03:38:51.391Z,0.50
2023-01-04T03:42:10.163Z,0.32
2023-01-04T03:45:24.284Z,0.13
2023-01-04T03:48:25.968Z,-0.18
2023-01-04T03:51:00.392Z,-0.19
2023-01-04T03:53:28.448Z,-0.50
2023-01-04T03:55:58.392Z,-0.60
2023-01-04T03:58:25.828Z,-0.53
2023-01-04T04:00:52.537Z,-0.72
2023-01-04T04:03:19.117Z,-0.76
2023-01-04T04:06:04.899Z,-1.00
2023-01-04T04:08:31.550Z,-0.86
2023-01-04T04:11:20.305Z,-0.99
2023-01-04T04:13:50.776Z,-0.72
2023-01-04T04:16:17.802Z,-0.92
2023-01-04T04:18:44.703Z,-0.67
2023-01-04T04:21:11.314Z,-1.13
2023-01-04T04:23:38.205Z,-1.18
2023-01-04T04:26:04.956Z,-1.24
2023-01-04T04:28:32.903Z,-1.51
2023-01-04T04:30:59.514Z,-1.46
2023-01-04T04:33:26.067Z,-1.29
2023-01-04T04:35:54.894Z,-1.59
2023-01-04T04:38:21.899Z,-1.37
2023-01-04T04:41:07.266Z,-1.35
2023-01-04T04:43:34.378Z,-1.10
2023-01-04T04:46:01.390Z,-1.48
2023-01-04T04:48:28.059Z,-1.55
2023-01-04T04:50:54.712Z,-1.23
2023-01-04T04:53:21.315Z,-1.54
2023-01-04T04:55:51.882Z,-1.56
2023-01-04T04:58:18.513Z,-0.92
2023-01-04T05:00:45.141Z,-1.50
2023-01-04T05:03:11.775Z,-1.56
2023-01-04T05:05:38.430Z,-1.66
2023-01-04T05:08:05.295Z,-1.54
2023-01-04T05:10:31.816Z,-1.69
2023-01-04T05:13:00.966Z,-1.70
2023-01-04T05:15:31.681Z,-1.96
2023-01-04T05:17:58.244Z,-1.84
2023-01-04T05:20:24.862Z,-2.05
2023-01-04T05:22:51.528Z,-1.77
2023-01-04T05:25:18.779Z,-1.90
2023-01-04T05:27:45.524Z,-1.60
2023-01-04T05:30:32.444Z,-1.93
2023-01-04T05:32:59.826Z,-1.93
2023-01-04T05:35:26.604Z,-1.78
2023-01-04T05:37:53.524Z,-1.57
2023-01-04T05:40:21.223Z,-1.60
2023-01-04T05:42:48.315Z,-1.52
2023-01-04T05:45:16.131Z,-1.69
2023-01-04T05:47:45.325Z,-1.75
2023-01-04T05:50:11.936Z,-1.74
2023-01-04T05:52:38.501Z,-1.90
2023-01-04T05:55:05.459Z,-2.18
2023-01-04T05:57:32.024Z,-2.32
2023-01-04T05:59:58.579Z,-2.16
2023-01-04T06:02:29.112Z,-2.20
2023-01-04T06:04:59.209Z,-2.36
2023-01-04T06:07:27.309Z,-2.47
2023-01-04T06:09:53.881Z,-2.44
2023-01-04T06:12:20.473Z,-2.51
2023-01-04T06:14:47.178Z,-2.53
2023-01-04T06:17:13.912Z,-2.75
2023-01-04T06:19:40.569Z,-2.56
2023-01-04T06:22:08.120Z,-2.36
2023-01-04T06:24:34.758Z,-2.77
2023-01-04T06:27:02.634Z,-2.81
2023-01-04T06:29:29.274Z,-2.72
2023-01-04T06:31:55.885Z,-2.55
2023-01-04T06:34:26.984Z,-2.84
2023-01-04T06:36:56.996Z,-2.93
2023-01-04T06:39:23.900Z,-2.64
2023-01-04T06:41:50.451Z,-2.52
2023-01-04T06:44:17.118Z,-2.29
2023-01-04T06:46:43.845Z,-2.44
2023-01-04T06:49:10.509Z,-2.76
2023-01-04T06:51:37.079Z,-2.63
2023-01-04T06:54:03.821Z,-2.65
2023-01-04T06:56:32.041Z,-2.40
2023-01-04T06:58:58.757Z,-2.40
2023-01-04T07:01:25.883Z,-2.41
2023-01-04T07:03:52.571Z,-2.32
2023-01-04T07:06:19.185Z,-2.31
2023-01-04T07:08:45.778Z,-2.37
2023-01-04T07:11:12.478Z,-2.31
2023-01-04T07:13:39.071Z,-2.35
2023-01-04T07:16:06.117Z,-2.34
2023-01-04T07:18:32.737Z,-1.91
2023-01-04T07:20:59.312Z,-1.99
2023-01-04T07:23:25.988Z,-2.05
2023-01-04T07:25:52.611Z,-1.92
2023-01-04T07:28:39.118Z,-1.76
2023-01-04T07:31:07.707Z,-1.71
2023-01-04T07:33:34.419Z,-1.65
2023-01-04T07:36:05.671Z,-1.62
2023-01-04T07:38:34.018Z,-1.54
2023-01-04T07:41:00.692Z,-1.29
2023-01-04T07:43:28.438Z,-0.21
2023-01-04T07:45:55.600Z,0.05
2023-01-04T07:48:22.362Z,0.19
2023-01-04T07:50:50.142Z,0.13
2023-01-04T07:53:16.889Z,0.21
2023-01-04T07:55:43.483Z,0.24
2023-01-04T07:58:10.134Z,0.47
2023-01-04T08:00:36.856Z,0.50
2023-01-04T08:03:03.719Z,0.60
2023-01-04T08:05:35.017Z,0.46
2023-01-04T08:08:01.715Z,0.44
2023-01-04T08:10:28.713Z,0.59
2023-01-04T08:12:57.830Z,0.63
2023-01-04T08:15:24.378Z,0.74
2023-01-04T08:17:51.160Z,0.99
2023-01-04T08:20:18.273Z,1.06
2023-01-04T08:22:44.856Z,1.05
2023-01-04T08:25:11.433Z,1.25
2023-01-04T08:27:38.024Z,1.25
2023-01-04T08:30:05.537Z,1.48
2023-01-04T08:32:32.080Z,1.76
2023-01-04T08:34:58.671Z,1.91
2023-01-04T08:37:25.255Z,2.09
2023-01-04T08:39:51.840Z,2.14
2023-01-04T08:42:28.216Z,2.18
2023-01-04T08:44:59.807Z,2.26
2023-01-04T08:47:31.037Z,2.43
2023-01-04T08:49:58.242Z,2.54
2023-01-04T08:52:25.588Z,2.61
2023-01-04T08:54:52.926Z,2.82
2023-01-04T08:57:19.894Z,2.99
2023-01-04T08:59:46.500Z,3.00
2023-01-04T09:02:25.467Z,3.19
2023-01-04T09:04:52.770Z,3.90
2023-01-04T09:07:19.662Z,5.42
2023-01-04T09:09:46.267Z,6.99
2023-01-04T09:12:12.958Z,7.78
2023-01-04T09:14:39.732Z,8.06
2023-01-04T09:17:06.544Z,8.53
2023-01-04T09:19:33.495Z,8.18
2023-01-04T09:22:00.324Z,9.71
2023-01-04T09:24:26.977Z,10.41
2023-01-04T09:26:53.667Z,10.35
2023-01-04T09:29:20.721Z,10.05
2023-01-04T09:31:47.524Z,11.53
2023-01-04T09:34:16.700Z,12.77
2023-01-04T09:36:44.838Z,14.94
2023-01-04T09:39:18.785Z,14.55
2023-01-04T09:42:04.071Z,15.22
2023-01-04T09:45:12.221Z,14.56
2023-01-04T09:47:29.741Z,16.62
2023-01-04T09:50:05.469Z,17.98
2023-01-04T09:52:50.155Z,17.57
2023-01-04T09:55:39.497Z,16.95
2023-01-04T09:58:23.404Z,18.23
2023-01-04T10:01:02.694Z,18.43
2023-01-04T10:03:34.445Z,19.94
2023-01-04T10:06:02.496Z,18.64
2023-01-04T10:08:31.464Z,18.78
2023-01-04T10:11:35.196Z,19.29
2023-01-04T10:14:14.872Z,20.97
2023-01-04T10:17:23.554Z,18.77
2023-01-04T10:22:52.280Z,17.76
2023-01-04T10:25:34.105Z,19.85
2023-01-04T10:28:29.137Z,19.95
2023-01-04T10:31:39.984Z,19.73
2023-01-04T10:34:22.151Z,20.42
2023-01-04T10:36:51.368Z,18.91
2023-01-04T10:39:24.584Z,18.75
2023-01-04T10:42:01.005Z,18.56
2023-01-04T10:44:37.805Z,17.48
2023-01-04T10:47:17.736Z,18.90
2023-01-04T10:49:53.689Z,17.94
2023-01-04T10:52:26.027Z,18.83
2023-01-04T10:55:00.164Z,17.91
2023-01-04T10:57:43.891Z,18.44
2023-01-04T11:00:10.735Z,18.28
2023-01-04T11:02:40.115Z,18.17
2023-01-04T11:05:15.733Z,18.22
2023-01-04T11:07:48.216Z,19.10
2023-01-04T11:10:45.170Z,19.00
2023-01-04T11:13:11.783Z,19.66
2023-01-04T11:15:38.505Z,19.83
2023-01-04T11:18:07.750Z,20.05
2023-01-04T11:20:38.038Z,18.55
2023-01-04T11:23:11.535Z,18.58
2023-01-04T11:25:44.024Z,18.74
2023-01-04T11:28:25.898Z,18.57
2023-01-04T11:31:04.498Z,18.11
2023-01-04T11:33:31.583Z,19.36
2023-01-04T11:35:59.572Z,19.77
2023-01-04T11:38:30.624Z,20.39
2023-01-04T11:41:05.890Z,19.33
2023-01-04T11:43:37.232Z,19.57
2023-01-04T11:46:06.735Z,19.63
2023-01-04T11:48:36.394Z,18.82
2023-01-04T11:51:03.778Z,18.37
2023-01-04T11:53:37.423Z,18.28
2023-01-04T11:56:22.605Z,18.12
2023-01-04T11:59:11.114Z,19.32
2023-01-04T12:01:45.915Z,19.39
2023-01-04T12:04:20.913Z,19.95
2023-01-04T12:06:56.868Z,16.93
2023-01-04T12:09:23.803Z,19.34
2023-01-04T12:11:53.503Z,19.62
2023-01-04T12:14:21.880Z,19.52
2023-01-04T12:16:52.494Z,19.72
2023-01-04T12:19:21.400Z,16.58
2023-01-04T12:21:51.446Z,17.06
2023-01-04T12:24:22.350Z,16.78
2023-01-04T12:26:50.663Z,17.41
2023-01-04T12:29:23.251Z,15.93
2023-01-04T12:31:52.119Z,16.24
2023-01-04T12:34:26.077Z,14.60
2023-01-04T12:36:52.514Z,13.44
2023-01-04T12:39:29.282Z,12.28
2023-01-04T12:42:01.713Z,11.53
2023-01-04T12:44:40.360Z,10.63
2023-01-04T12:47:34.808Z,10.10
2023-01-04T12:50:11.788Z,9.83
2023-01-04T12:55:32.505Z,9.30
2023-01-04T12:58:01.913Z,9.08
2023-01-04T13:00:50.120Z,9.03
2023-01-04T13:03:17.374Z,8.89
2023-01-04T13:06:03.028Z,8.95
2023-01-04T13:08:33.529Z,8.84
2023-01-04T13:11:01.705Z,8.87
2023-01-04T13:13:41.976Z,8.75
2023-01-04T13:16:14.241Z,8.58
2023-01-04T13:18:49.406Z,8.55
2023-01-04T13:21:34.815Z,8.31
2023-01-04T13:24:05.196Z,8.17
2023-01-04T13:26:31.730Z,8.09
2023-01-04T13:29:10.340Z,8.11
2023-01-04T13:32:01.739Z,8.08
2023-01-04T13:34:38.060Z,8.09
2023-01-04T13:37:10.738Z,8.23
2023-01-04T13:39:43.895Z,8.07
2023-01-04T13:42:24.748Z,7.94
2023-01-04T13:45:20.474Z,7.76
2023-01-04T13:47:51.312Z,7.58
2023-01-04T13:50:47.371Z,7.17
2023-01-04T13:53:25.462Z,6.95
2023-01-04T13:56:01.072Z,6.69
2023-01-04T13:58:32.970Z,6.50
2023-01-04T14:01:11.731Z,6.35
2023-01-04T14:03:45.168Z,6.18
2023-01-04T14:06:14.577Z,6.00
2023-01-04T14:08:48.173Z,5.89
2023-01-04T14:11:38.286Z,5.80
2023-01-04T14:14:15.434Z,5.70
2023-01-04T14:16:42.113Z,5.38
2023-01-04T14:19:39.640Z,5.20
2023-01-04T14:22:29.793Z,5.14
2023-01-04T14:25:14.493Z,5.08
2023-01-04T14:27:43.022Z,5.11
2023-01-04T14:30:24.518Z,5.26
2023-01-04T14:33:02.909Z,5.04
2023-01-04T14:35:30.511Z,5.00
2023-01-04T14:38:06.443Z,4.94
2023-01-04T14:40:33.682Z,4.80
2023-01-04T14:43:00.327Z,4.64
2023-01-04T14:45:27.074Z,4.49
2023-01-04T14:47:53.709Z,4.46
2023-01-04T14:50:20.451Z,4.32
2023-01-04T14:52:51.672Z,4.23
2023-01-04T14:55:18.319Z,4.14
2023-01-04T14:57:45.364Z,4.04
2023-01-04T15:00:19.408Z,3.98
2023-01-04T15:02:51.573Z,3.86
2023-01-04T15:05:21.186Z,3.81
2023-01-04T15:07:48.343Z,3.78
2023-01-04T15:10:32.807Z,3.74
2023-01-04T15:13:04.221Z,3.65
2023-01-04T15:15:33.451Z,3.74
2023-01-04T15:18:00.151Z,3.72
2023-01-04T15:20:26.767Z,3.78
2023-01-04T15:22:53.333Z,3.74
2023-01-04T15:25:19.905Z,3.86
2023-01-04T15:27:46.445Z,3.86
2023-01-04T15:30:14.132Z,3.82
2023-01-04T15:32:41.191Z,3.70
2023-01-04T15:35:08.387Z,3.76
2023-01-04T15:37:34.982Z,3.67
2023-01-04T15:40:03.374Z,3.76
2023-01-04T15:42:48.971Z,3.73
2023-01-04T15:45:15.843Z,3.80
2023-01-04T15:47:42.643Z,3.74
2023-01-04T15:50:09.411Z,3.73
2023-01-04T15:52:35.990Z,3.71
2023-01-04T15:55:02.699Z,3.74
2023-01-04T15:57:29.229Z,3.86
2023-01-04T15:59:55.867Z,3.67
2023-01-04T16:02:22.505Z,3.74
2023-01-04T16:04:49.647Z,3.65
2023-01-04T16:07:17.408Z,3.58
2023-01-04T16:09:44.069Z,3.63
2023-01-04T16:12:28.912Z,3.52
2023-01-04T16:14:55.499Z,3.52
2023-01-04T16:17:22.115Z,3.44
2023-01-04T16:19:48.667Z,3.37
2023-01-04T16:22:15.245Z,3.38
2023-01-04T16:27:34.805Z,3.38
2023-01-04T16:30:07.424Z,3.31
2023-01-04T16:32:35.043Z,3.31
2023-01-04T16:35:01.636Z,3.27
2023-01-04T16:37:29.121Z,3.31
2023-01-04T16:40:11.128Z,3.25
2023-01-04T16:42:38.849Z,3.29
2023-01-04T16:45:06.783Z,3.30
2023-01-04T16:47:43.821Z,3.24
2023-01-04T16:50:12.450Z,3.17
2023-01-04T16:52:39.985Z,3.13
2023-01-04T16:55:07.268Z,3.04
2023-01-04T16:57:34.017Z,3.02
2023-01-04T17:00:00.599Z,2.87
2023-01-04T17:02:27.318Z,2.87
2023-01-04T17:04:59.603Z,2.83
2023-01-04T17:07:32.912Z,2.85
2023-01-04T17:10:00.875Z,2.84
2023-01-04T17:15:41.985Z,2.86
2023-01-04T17:18:00.694Z,2.77
2023-01-04T17:20:27.267Z,2.74
2023-01-04T17:22:56.039Z,2.75
2023-01-04T17:25:22.634Z,2.73
2023-01-04T17:27:51.554Z,2.64
2023-01-04T17:30:18.193Z,2.62
2023-01-04T17:32:44.748Z,2.59
2023-01-04T17:35:11.326Z,2.60
2023-01-04T17:37:37.909Z,2.61
2023-01-04T17:40:04.858Z,2.57
2023-01-04T17:42:34.373Z,2.55
2023-01-04T17:45:00.952Z,2.53
2023-01-04T17:47:27.795Z,2.50
2023-01-04T17:49:54.465Z,2.46
2023-01-04T17:52:30.407Z,2.38
2023-01-04T17:54:57.713Z,2.36
2023-01-04T17:57:24.347Z,2.36
2023-01-04T17:59:53.647Z,2.32
2023-01-04T18:02:22.295Z,2.31
2023-01-04T18:04:49.109Z,2.23
2023-01-04T18:07:15.803Z,2.17
2023-01-04T18:09:42.390Z,2.10
2023-01-04T18:12:09.035Z,2.10
2023-01-04T18:14:35.591Z,2.13
2023-01-04T18:17:02.234Z,2.21
2023-01-04T18:19:30.613Z,2.33
2023-01-04T18:21:58.247Z,2.40
2023-01-04T18:24:41.738Z,2.44
2023-01-04T18:27:28.445Z,2.51
2023-01-04T18:29:56.224Z,2.53
2023-01-04T18:32:24.935Z,2.63
2023-01-04T18:34:51.543Z,2.46
2023-01-04T18:37:19.002Z,2.56
2023-01-04T18:39:46.719Z,2.44
2023-01-04T18:42:13.390Z,2.65
2023-01-04T18:44:47.372Z,2.62
2023-01-04T18:47:15.565Z,2.65
2023-01-04T18:49:42.150Z,2.76
2023-01-04T18:52:08.803Z,2.75
2023-01-04T18:54:35.498Z,2.71
2023-01-04T18:57:02.160Z,2.70
2023-01-04T18:59:32.224Z,2.67
2023-01-04T19:02:01.590Z,2.78
2023-01-04T19:04:29.954Z,2.81
2023-01-04T19:06:56.713Z,2.84
2023-01-04T19:09:23.717Z,2.90
2023-01-04T19:11:50.358Z,2.87
2023-01-04T19:14:17.425Z,2.89
2023-01-04T19:16:44.217Z,2.95
2023-01-04T19:19:11.304Z,2.95
2023-01-04T19:21:37.944Z,2.98
2023-01-04T19:24:04.868Z,2.97
2023-01-04T19:26:31.487Z,2.98
2023-01-04T19:28:58.064Z,2.98
2023-01-04T19:31:24.668Z,2.93
2023-01-04T19:33:51.317Z,2.92
2023-01-04T19:36:19.175Z,2.97
2023-01-04T19:38:46.160Z,2.89
2023-01-04T19:41:20.870Z,2.83
2023-01-04T19:43:47.640Z,2.80
2023-01-04T19:46:14.627Z,2.85
2023-01-04T19:48:41.631Z,2.87
2023-01-04T19:51:12.999Z,2.81
2023-01-04T19:53:39.681Z,2.79
2023-01-04T19:56:07.138Z,2.83
2023-01-04T19:58:33.921Z,2.83
2023-01-04T20:01:00.786Z,2.81
2023-01-04T20:03:27.678Z,2.77
2023-01-04T20:05:55.155Z,2.79
2023-01-04T20:08:22.595Z,2.73
2023-01-04T20:10:57.139Z,2.73
2023-01-04T20:13:23.804Z,2.68
2023-01-04T20:15:53.367Z,2.74
2023-01-04T20:18:21.162Z,2.81
2023-01-04T20:20:47.876Z,2.97
2023-01-04T20:23:15.441Z,2.95
2023-01-04T20:25:47.253Z,2.89
2023-01-04T20:28:15.053Z,2.91
2023-01-04T20:30:41.824Z,2.80
2023-01-04T20:33:08.991Z,2.78
2023-01-04T20:35:40.856Z,2.89
2023-01-04T20:38:07.799Z,3.08
2023-01-04T20:40:36.169Z,3.19
2023-01-04T20:43:27.624Z,3.24
2023-01-04T20:45:54.274Z,3.34
2023-01-04T20:48:20.952Z,3.42
2023-01-04T20:50:47.551Z,3.50
2023-01-04T20:53:14.241Z,3.53
2023-01-04T20:55:42.290Z,3.54
2023-01-04T20:58:10.784Z,3.57
2023-01-04T21:00:38.008Z,3.66
2023-01-04T21:03:06.902Z,3.64
2023-01-04T21:05:38.246Z,3.71
2023-01-04T21:08:08.641Z,3.74
2023-01-04T21:10:36.643Z,3.81
2023-01-04T21:13:03.896Z,3.85
2023-01-04T21:15:30.711Z,3.86
2023-01-04T21:17:57.492Z,3.87
2023-01-04T21:20:24.787Z,3.95
2023-01-04T21:22:51.418Z,3.85
2023-01-04T21:25:18.181Z,3.87
2023-01-04T21:27:44.960Z,3.92
2023-01-04T21:30:12.186Z,3.92
2023-01-04T21:32:38.779Z,3.84
2023-01-04T21:35:06.295Z,3.70
2023-01-04T21:37:33.116Z,3.58
2023-01-04T21:39:59.710Z,3.49
2023-01-04T21:42:28.398Z,3.42
2023-01-04T21:44:55.012Z,3.34
2023-01-04T21:47:21.623Z,3.45
2023-01-04T21:49:48.207Z,3.52
2023-01-04T21:52:14.823Z,3.56
2023-01-04T21:54:41.418Z,3.64
2023-01-04T21:57:08.249Z,3.61
2023-01-04T21:59:36.069Z,3.70
2023-01-04T22:02:02.977Z,3.74
2023-01-04T22:04:30.009Z,3.75
2023-01-04T22:06:56.758Z,3.68
2023-01-04T22:09:23.873Z,3.57
2023-01-04T22:11:50.871Z,3.56
2023-01-04T22:14:18.482Z,3.58
2023-01-04T22:16:45.192Z,3.51
2023-01-04T22:19:13.361Z,3.50
2023-01-04T22:21:40.300Z,3.51
2023-01-04T22:24:07.839Z,3.48
2023-01-04T22:26:34.479Z,3.46
2023-01-04T22:29:01.315Z,3.44
2023-01-04T22:31:28.321Z,3.50
2023-01-04T22:33:54.990Z,3.71
2023-01-04T22:36:23.538Z,3.86
2023-01-04T22:38:56.245Z,4.04
2023-01-04T22:41:26.098Z,4.08
2023-01-04T22:43:57.927Z,3.92
2023-01-04T22:46:26.219Z,3.80
2023-01-04T22:48:52.949Z,3.71
2023-01-04T22:51:21.853Z,3.76
2023-01-04T22:53:49.435Z,3.73
2023-01-04T22:56:20.287Z,3.66
2023-01-04T22:58:52.999Z,3.71
2023-01-04T23:01:21.676Z,3.60
2023-01-04T23:03:48.591Z,3.71
2023-01-04T23:06:15.606Z,3.38
2023-01-04T23:08:42.239Z,3.49
2023-01-04T23:11:19.477Z,3.70
2023-01-04T23:13:46.421Z,3.92
2023-01-04T23:16:15.403Z,4.01
2023-01-04T23:18:42.479Z,4.05
2023-01-04T23:21:09.730Z,4.23
2023-01-04T23:23:36.514Z,4.14
2023-01-04T23:26:24.606Z,4.20
2023-01-04T23:28:51.508Z,4.34
2023-01-04T23:31:21.284Z,4.30
2023-01-04T23:33:51.974Z,4.40
2023-01-04T23:36:21.527Z,4.36
2023-01-04T23:38:56.603Z,4.37
2023-01-04T23:41:44.471Z,4.56
2023-01-04T23:44:20.358Z,4.72
2023-01-04T23:46:54.440Z,4.72
2023-01-04T23:49:22.607Z,4.80
2023-01-04T23:51:49.315Z,4.83
2023-01-04T23:54:16.031Z,4.79
2023-01-04T23:56:42.627Z,4.80
2023-01-04T23:59:09.698Z,4.73
